Issaquah, WA

8:50 PM PST on December 28, 2014 (GMT -0800)
Renton Municipal | Change Station
CLOSE
Current Station
Airport
Location: Renton,
Elevation: 30 ft
Nearby Weather Stations

Elev 30 ft 47.49 °N, 122.22 °W | Updated 57 minutes ago

Overcast
Overcast
41 °F
Feels Like 39 °F
N
4
Wind Variable Wind from East

Today
High -- | Low -- °F
--% Chance of Precip.
Yesterday
High -- | Low -- °F
Precip. -- in
7:56 AM 4:24 PM
First Quarter, 55% visible
Pressure 30.18 in
Visibility 10.0 miles
Clouds Few 2400 ft
Overcast 3900 ft
Windchill 39 °F
Dew Point 32 °F
Humidity 70%
Rainfall 0.14 in
Snow Depth Not available.
UV 0 out of 12
Pollen .50 out of 12
Air Quality Not available.
Flu Activity Not available.
METAR KRNT 290353Z 08003KT 10SM FEW024 OVC039 05/00 A3016 RMK AO2 SLP218 T00500000

More Conditions Fewer Conditions

Pressure 30.18 in
Visibility 10.0 miles
Clouds Few 2400 ft
Overcast 3900 ft
Windchill 39 °F
Dew Point 32 °F
Humidity 70%
Rainfall 0.14 in
Snow Depth Not available.
UV 0 out of 12
Pollen .50 out of 12
Air Quality Not available.
Flu Activity Not available.
METAR KRNT 290353Z 08003KT 10SM FEW024 OVC039 05/00 A3016 RMK AO2 SLP218 T00500000

More Conditions Fewer Conditions

10-Day Weather Forecast

Almanac

Astronomy

Dec. 28, 2014 Rise Set
Actual Time
Civil Twilight
Nautical Twilight
Astronomical Twilight
Moon
Length of Visible Light
Length of Day
Tomorrow will be .
, % of the Moon is Illuminated

Today's Extremes

State Highs State Lows

Community

WunderPhotos

Upload Photos

1,781,530 photos uploaded!

WunderBlogs® & News

Nearby

Air Quality

  Air Quality AQ Index Pollutant
Not available.

Snow Depth

Station Depth Elevation

Earthquake Activity

City Distance Mag. Time & Date
Minimum magnitude displayed is 2.5.

Coastal Water Temperatures

Place Temperature

Nearby Weather Stations